Página principal
METAR-TAF:

METAR-TAF

Aeroportos :

Bahrein, Bahrein

Aeroporto Internacional do Bahrain

latitude: 26-16N, longitude: 050-39E, altura: 2 m

Observação actual do tempo

O boletim foi feito há 24 minutos, às 23:00 UTC
Vento 9 kt de oeste
Temperatura 16°C
Humidade 51%
Pressão 1018 hPa
Visibilidade: 8000 m
Céu limpo

METAR: OBBI 122300Z 28009KT 8000 SKC 16/06 Q1018 NOSIG

Hora: 02:24 (23:24 UTC)

Previsão

O boletim foi feito há 4 horas e 25 minutos, às 18:59 UTC
Previsão válida de 12 às 18 UTC a 14 às 00 UTC
Vento 13 kt de oes-noroeste
Visibilidade 10 km ou mais
sem nuvens abaixo de 1500 metros e sem cumulonimbus
Temporariamente
de 12 às 18 UTC a 12 às 20 UTC
Visibilidade: 4000 m
poeira extensa
Tornando-se
de 13 às 15 UTC a 13 às 17 UTC
Vento 5 kt com direcção variável

TAF: OBBI 121859Z 1218/1400 30013KT CAVOK TEMPO 1218/1220 4000 DU BECMG 1315/1317 VRB05KT

Observações e previsões do tempo de mais de 4000 aeroportos (mensagens METAR e TAF).

As estações disponíveis são os pontos amarelos e vermelhos sobre o mapa.

Mova o rato sobre o mapa para ver o nome da estação.

Depois clique no ponto para visualizar as observações e previsões meteorológicas.

Para alterar o mapa : clique nos botões verdes com uma cruz preta para aumentar o zoom; no botão verde com uma pitada de zoom; ou nas setas verdes para mapas adjacentes.


METAR-TAF: